Buoy 43533

sailwx.info

Track history (hours):
 
Tides and Currents Weather Stations Pressure Air Temp Water Temp Dewpoint Dewpoint Depression Visibility Wind Speed Wind Dir Waves Ship Positions

Drifting buoy 43533

Last reported at 2017-Feb-19 18:00 UTC. Time now 2017-Feb-19 23:27 UTC.
Position N 19°11' W 119°41'.

Length 24 m.

Type: Fishing. MMSI: 412466549.

Water temperature 21.8 ° C

Date/timePositionNaut miles runAvg speedWind from/ knotsBaromVisibWave heightAir tempDewpointWater temp
2017-Feb-19 18:00N 19°11' W 119°41'1 0.8 21.8
2017-Feb-19 17:00N 19°10' W 119°42'1 0.6 21.8
2017-Feb-19 16:00N 19°10' W 119°43'0 0.0 21.8
2017-Feb-19 15:00N 19°10' W 119°43'0 0.0 21.8
2017-Feb-19 14:00N 19°10' W 119°43'1 0.6 21.8
2017-Feb-19 13:00N 19°10' W 119°43'1 0.6 21.8
2017-Feb-19 11:00N 19°09' W 119°44'0 0.0 21.8
2017-Feb-19 10:00N 19°09' W 119°44'1 0.1 21.8
2017-Feb-19 05:00N 19°10' W 119°44'1 0.8 21.8
2017-Feb-19 04:00N 19°09' W 119°43'1 1.3 21.8
2017-Feb-19 03:00N 19°10' W 119°44'1 0.6 21.9
2017-Feb-19 02:00N 19°10' W 119°44'2 0.9 21.9
2017-Feb-19 00:00N 19°09' W 119°46'0 0.0 21.9
2017-Feb-18 22:00N 19°09' W 119°46'1 0.2 21.9
2017-Feb-18 18:00N 19°10' W 119°46'1 0.6 21.9
2017-Feb-18 17:00N 19°10' W 119°46'1 0.6 21.9
2017-Feb-18 16:00N 19°10' W 119°46'1 1.1 21.8
2017-Feb-18 15:00N 19°10' W 119°47'1 0.6 21.8
2017-Feb-18 14:00N 19°10' W 119°48'1 0.6 21.8
2017-Feb-18 13:00N 19°10' W 119°47'1 1.1 21.8
2017-Feb-18 12:00N 19°10' W 119°49'3 2.6 21.8
2017-Feb-18 11:00N 19°09' W 119°51'3 2.6 21.9
2017-Feb-18 10:00N 19°10' W 119°49'3 0.6 21.8
2017-Feb-18 06:00N 19°09' W 119°51'1 0.6 21.9
2017-Feb-18 05:00N 19°09' W 119°52'1 0.6 21.9
2017-Feb-18 04:00N 19°09' W 119°52'1 0.6 21.9
2017-Feb-18 03:00N 19°09' W 119°53'1 0.6 21.9
2017-Feb-18 01:00N 19°09' W 119°54'4 2.2 22.1
2017-Feb-17 23:00N 19°07' W 119°58'4 3.6 22.2
2017-Feb-17 22:00N 19°08' W 119°55'4 1.2 22.1
2017-Feb-17 19:00N 19°07' W 119°58'1 0.6 22.1
2017-Feb-17 18:00N 19°07' W 119°59'1 0.6 21.9
2017-Feb-17 17:00N 19°07' W 119°59'1 0.6 21.9
2017-Feb-17 16:00N 19°07' W 120°00'1 0.6 21.8
2017-Feb-17 15:00N 19°07' W 120°01'0 0.0 21.8
2017-Feb-17 14:00N 19°07' W 120°01'0 0.0 21.8
2017-Feb-17 13:00N 19°07' W 120°01'1 1.3 21.9
2017-Feb-17 12:00N 19°08' W 120°02'0 0.0 21.9
2017-Feb-17 11:00N 19°08' W 120°02'4 4.0 21.9
2017-Feb-17 10:00N 19°07' W 120°06'3 2.9 21.9
2017-Feb-17 09:00N 19°08' W 120°03'3 1.0 21.9
2017-Feb-17 06:00N 19°07' W 120°06'0 0.0 21.9
2017-Feb-17 05:00N 19°07' W 120°06'1 1.1 21.9
2017-Feb-17 04:00N 19°07' W 120°07'0 0.0 21.9
2017-Feb-17 02:00N 19°07' W 120°07'1 0.6 21.9
2017-Feb-17 01:00N 19°07' W 120°08'1 0.6 21.9
2017-Feb-17 00:00N 19°08' W 120°08'0 0.0 21.9
2017-Feb-16 23:00N 19°08' W 120°08'0 0.0 22.1
2017-Feb-16 22:00N 19°08' W 120°08'2 2.3 22.1
2017-Feb-16 21:00N 19°08' W 120°10'1 0.2 21.9
2017-Feb-16 18:00N 19°08' W 120°11'0 0.0 21.8
2017-Feb-16 17:00N 19°08' W 120°11'1 0.6 21.8
2017-Feb-16 16:00N 19°09' W 120°11'1 0.8 21.8
2017-Feb-16 15:00N 19°10' W 120°11'0 0.0 21.8
2017-Feb-16 14:00N 19°10' W 120°11'1 0.7 21.8
2017-Feb-16 12:00N 19°11' W 120°12'1 1.3 21.8
2017-Feb-16 11:00N 19°11' W 120°13'0 0.0 21.8
2017-Feb-16 10:00N 19°11' W 120°13'0 0.0 21.8
2017-Feb-16 06:00N 19°11' W 120°13'0 0.0 21.8
2017-Feb-16 05:00N 19°11' W 120°13'0 0.0 21.8
2017-Feb-16 04:00N 19°11' W 120°13'1 0.8 21.9
2017-Feb-16 03:00N 19°12' W 120°13'1 0.6 21.9
2017-Feb-16 02:00N 19°13' W 120°13'1 1.2 21.9
2017-Feb-16 01:00N 19°14' W 120°13'1 0.6 21.9
2017-Feb-16 00:00N 19°14' W 120°12'0 0.0 21.9
2017-Feb-15 23:00N 19°14' W 120°12'1 0.4 21.9
2017-Feb-15 21:00N 19°14' W 120°11'1 0.3 21.9
2017-Feb-15 18:00N 19°15' W 120°11'1 0.8 21.8
2017-Feb-15 17:00N 19°16' W 120°10'0 0.0 21.8
2017-Feb-15 16:00N 19°16' W 120°10'1 0.8 21.8
2017-Feb-15 15:00N 19°16' W 120°10'1 0.8 21.8
2017-Feb-15 14:00N 19°17' W 120°09'1 1.1 21.8
2017-Feb-15 13:00N 19°17' W 120°08'1 1.3 21.8
2017-Feb-15 12:00N 19°18' W 120°07'1 0.6 21.8
2017-Feb-15 11:00N 19°19' W 120°07'2 1.8 21.8
2017-Feb-15 10:00N 19°19' W 120°05'2 2.1 21.8
2017-Feb-15 09:00N 19°18' W 120°07'3 0.9 21.8
2017-Feb-15 06:00N 19°19' W 120°05'1 0.8 21.9
2017-Feb-15 05:00N 19°20' W 120°04'1 0.6 21.9
2017-Feb-15 04:00N 19°20' W 120°04'2 1.7 21.9
2017-Feb-15 03:00N 19°20' W 120°02'0 0.0 21.9
2017-Feb-15 01:00N 19°20' W 120°02'1 1.3 21.9
2017-Feb-15 00:00N 19°20' W 120°01'0 0.0 21.9
2017-Feb-14 23:00N 19°20' W 120°01'1 0.3 21.9
2017-Feb-14 21:00N 19°20' W 120°00'3 1.0 21.9
2017-Feb-14 18:00N 19°19' W 119°57'1 1.3 21.9
2017-Feb-14 17:00N 19°19' W 119°56'0 0.0 21.9
2017-Feb-14 16:00N 19°19' W 119°56'1 0.6 21.9
2017-Feb-14 15:00N 19°18' W 119°56'1 1.1 21.9
2017-Feb-14 14:00N 19°18' W 119°55'0 0.0 21.9
2017-Feb-14 13:00N 19°18' W 119°55'2 1.8 21.9
2017-Feb-14 12:00N 19°17' W 119°53'0 0.0 21.9
2017-Feb-14 11:00N 19°17' W 119°53'3 3.1 21.9
2017-Feb-14 10:00N 19°16' W 119°50'3 3.1 22.0
2017-Feb-14 09:00N 19°17' W 119°53'4 0.9 22.0
2017-Feb-14 05:00N 19°16' W 119°49'1 0.6 22.1
2017-Feb-14 04:00N 19°16' W 119°49'1 0.6 22.1
2017-Feb-14 02:00N 19°16' W 119°47'0 0.0 22.1
2017-Feb-14 01:00N 19°16' W 119°47'0 0.0 22.2
2017-Feb-13 23:00N 19°16' W 119°47'1 0.6 22.2
2017-Feb-13 22:00N 19°16' W 119°47'0 0.0 22.2
2017-Feb-13 21:00N 19°16' W 119°47'1 0.4 22.2
2017-Feb-13 18:00N 19°15' W 119°46'1 1.3 22.1
2017-Feb-13 17:00N 19°14' W 119°45'0 0.0 22.1
2017-Feb-13 16:00N 19°14' W 119°45'1 0.3 22.1
2017-Feb-13 14:00N 19°14' W 119°44'0 0.0 22.1
2017-Feb-13 13:00N 19°14' W 119°44'2 0.6 22.1
2017-Feb-13 10:00N 19°13' W 119°44'0 0.0 22.2
2017-Feb-13 06:00N 19°13' W 119°44'1 0.8 22.3
2017-Feb-13 05:00N 19°12' W 119°43'0 0.0 22.3
2017-Feb-13 04:00N 19°12' W 119°43'0 0.0 22.3
2017-Feb-13 03:00N 19°12' W 119°43'1 0.6 22.4
2017-Feb-13 02:00N 19°11' W 119°43'1 0.8 22.4
2017-Feb-13 01:00N 19°11' W 119°43'0 0.0 22.4
2017-Feb-13 00:00N 19°11' W 119°43'1 0.6 22.4
2017-Feb-12 23:00N 19°11' W 119°42'0 0.0 22.4
2017-Feb-12 22:00N 19°11' W 119°42'0 0.0 22.4
2017-Feb-12 21:00N 19°11' W 119°42'1 0.4 22.4
2017-Feb-12 18:00N 19°11' W 119°41'0 0.0 22.3
2017-Feb-12 17:00N 19°11' W 119°41'0 0.0 22.2
2017-Feb-12 16:00N 19°11' W 119°41'0 0.0 22.3
2017-Feb-12 14:00N 19°11' W 119°41'1 1.3 22.2
2017-Feb-12 13:00N 19°12' W 119°40'0 0.0 22.2
2017-Feb-12 12:00N 19°12' W 119°40'1 0.8 22.2
2017-Feb-12 11:00N 19°11' W 119°41'1 0.6 22.1
2017-Feb-12 10:00N 19°11' W 119°41'0 0.0 22.1
2017-Feb-12 06:00N 19°11' W 119°41'0 0.0 22.2
2017-Feb-12 05:00N 19°11' W 119°41'1 0.8 22.3
2017-Feb-12 04:00N 19°11' W 119°42'1 0.6 22.4
2017-Feb-12 03:00N 19°11' W 119°42'1 0.6 22.4
2017-Feb-12 02:00N 19°11' W 119°42'1 0.8 22.5
2017-Feb-12 01:00N 19°10' W 119°41'0 0.0 22.6
2017-Feb-12 00:00N 19°10' W 119°41'1 0.6 22.7
2017-Feb-11 23:00N 19°10' W 119°42'0 0.0 22.9
2017-Feb-11 22:00N 19°10' W 119°42'1 0.1 22.9
2017-Feb-11 18:00N 19°10' W 119°41'0 0.0 22.5
2017-Feb-11 17:00N 19°10' W 119°41'1 0.6 22.4
2017-Feb-11 16:00N 19°11' W 119°41'0 0.0 22.4
2017-Feb-11 15:00N 19°11' W 119°41'1 0.6 22.4
2017-Feb-11 14:00N 19°10' W 119°41'1 0.6 22.5
2017-Feb-11 13:00N 19°11' W 119°41'1 0.6 22.5
2017-Feb-11 12:00N 19°11' W 119°42'1 0.8 22.6
2017-Feb-11 11:00N 19°10' W 119°43'0 0.0 22.6
2017-Feb-11 10:00N 19°10' W 119°43'0 0.0 22.4
2017-Feb-11 06:00N 19°10' W 119°43'1 0.6 22.5
2017-Feb-11 05:00N 19°10' W 119°43'1 0.6 22.6
2017-Feb-11 04:00N 19°10' W 119°43'0 0.0 22.6
2017-Feb-11 03:00N 19°10' W 119°43'1 0.6 22.8
2017-Feb-11 02:00N 19°10' W 119°44'1 0.6 23.0
2017-Feb-11 01:00N 19°10' W 119°43'0 0.0 23.4
2017-Feb-11 00:00N 19°10' W 119°43'0 0.0 23.6
2017-Feb-10 22:00N 19°10' W 119°43'0 0.0 23.8
2017-Feb-10 19:00N 19°10' W 119°43'0 0.0 22.6
2017-Feb-10 18:00N 19°10' W 119°43'0 0.0 22.4
2017-Feb-10 17:00N 19°10' W 119°43'0 0.0 22.3
2017-Feb-10 16:00N 19°10' W 119°43'1 0.6 22.2
2017-Feb-10 15:00N 19°10' W 119°44'0 0.0 22.2
2017-Feb-10 14:00N 19°10' W 119°44'0 0.0 22.1
2017-Feb-10 13:00N 19°10' W 119°44'1 0.6 22.2
2017-Feb-10 12:00N 19°10' W 119°44'2 1.7 22.2
2017-Feb-10 11:00N 19°08' W 119°46'2 1.7 22.2
2017-Feb-10 10:00N 19°10' W 119°44'2 0.4 22.1
2017-Feb-10 06:00N 19°08' W 119°46'1 0.6 22.3
2017-Feb-10 05:00N 19°08' W 119°46'0 0.0 22.4
2017-Feb-10 04:00N 19°08' W 119°46'1 0.3 22.4
2017-Feb-10 02:00N 19°08' W 119°46'0 0.0 22.6
2017-Feb-10 01:00N 19°08' W 119°46'0 0.0 22.7
2017-Feb-10 00:00N 19°08' W 119°46'0 0.0 22.6
2017-Feb-09 22:00N 19°08' W 119°46'1 0.3 22.4
2017-Feb-09 18:00N 19°08' W 119°47'   22.0
Track history (hours):
 
Tides and Currents Weather Stations Pressure Air Temp Water Temp Dewpoint Dewpoint Depression Visibility Wind Speed Wind Dir Waves Ship Positions

Drifting buoy 43533

Last reported at 2017-Feb-19 18:00 UTC. Time now 2017-Feb-19 23:27 UTC.
Position N 19°11' W 119°41'.

Length 24 m.

Type: Fishing. MMSI: 412466549.

Water temperature 21.8 ° C

Date/timePositionNaut miles runAvg speedWind from/ knotsBaromVisibWave heightAir tempDewpointWater temp
2017-Feb-19 18:00N 19°11' W 119°41'1 0.8 21.8
2017-Feb-19 17:00N 19°10' W 119°42'1 0.6 21.8
2017-Feb-19 16:00N 19°10' W 119°43'0 0.0 21.8
2017-Feb-19 15:00N 19°10' W 119°43'0 0.0 21.8
2017-Feb-19 14:00N 19°10' W 119°43'1 0.6 21.8
2017-Feb-19 13:00N 19°10' W 119°43'1 0.6 21.8
2017-Feb-19 11:00N 19°09' W 119°44'0 0.0 21.8
2017-Feb-19 10:00N 19°09' W 119°44'1 0.1 21.8
2017-Feb-19 05:00N 19°10' W 119°44'1 0.8 21.8
2017-Feb-19 04:00N 19°09' W 119°43'1 1.3 21.8
2017-Feb-19 03:00N 19°10' W 119°44'1 0.6 21.9
2017-Feb-19 02:00N 19°10' W 119°44'2 0.9 21.9
2017-Feb-19 00:00N 19°09' W 119°46'0 0.0 21.9
2017-Feb-18 22:00N 19°09' W 119°46'1 0.2 21.9
2017-Feb-18 18:00N 19°10' W 119°46'1 0.6 21.9
2017-Feb-18 17:00N 19°10' W 119°46'1 0.6 21.9
2017-Feb-18 16:00N 19°10' W 119°46'1 1.1 21.8
2017-Feb-18 15:00N 19°10' W 119°47'1 0.6 21.8
2017-Feb-18 14:00N 19°10' W 119°48'1 0.6 21.8
2017-Feb-18 13:00N 19°10' W 119°47'1 1.1 21.8
2017-Feb-18 12:00N 19°10' W 119°49'3 2.6 21.8
2017-Feb-18 11:00N 19°09' W 119°51'3 2.6 21.9
2017-Feb-18 10:00N 19°10' W 119°49'3 0.6 21.8
2017-Feb-18 06:00N 19°09' W 119°51'1 0.6 21.9
2017-Feb-18 05:00N 19°09' W 119°52'1 0.6 21.9
2017-Feb-18 04:00N 19°09' W 119°52'1 0.6 21.9
2017-Feb-18 03:00N 19°09' W 119°53'1 0.6 21.9
2017-Feb-18 01:00N 19°09' W 119°54'4 2.2 22.1
2017-Feb-17 23:00N 19°07' W 119°58'4 3.6 22.2
2017-Feb-17 22:00N 19°08' W 119°55'4 1.2 22.1
2017-Feb-17 19:00N 19°07' W 119°58'1 0.6 22.1
2017-Feb-17 18:00N 19°07' W 119°59'1 0.6 21.9
2017-Feb-17 17:00N 19°07' W 119°59'1 0.6 21.9
2017-Feb-17 16:00N 19°07' W 120°00'1 0.6 21.8
2017-Feb-17 15:00N 19°07' W 120°01'0 0.0 21.8
2017-Feb-17 14:00N 19°07' W 120°01'0 0.0 21.8
2017-Feb-17 13:00N 19°07' W 120°01'1 1.3 21.9
2017-Feb-17 12:00N 19°08' W 120°02'0 0.0 21.9
2017-Feb-17 11:00N 19°08' W 120°02'4 4.0 21.9
2017-Feb-17 10:00N 19°07' W 120°06'3 2.9 21.9
2017-Feb-17 09:00N 19°08' W 120°03'3 1.0 21.9
2017-Feb-17 06:00N 19°07' W 120°06'0 0.0 21.9
2017-Feb-17 05:00N 19°07' W 120°06'1 1.1 21.9
2017-Feb-17 04:00N 19°07' W 120°07'0 0.0 21.9
2017-Feb-17 02:00N 19°07' W 120°07'1 0.6 21.9
2017-Feb-17 01:00N 19°07' W 120°08'1 0.6 21.9
2017-Feb-17 00:00N 19°08' W 120°08'0 0.0 21.9
2017-Feb-16 23:00N 19°08' W 120°08'0 0.0 22.1
2017-Feb-16 22:00N 19°08' W 120°08'2 2.3 22.1
2017-Feb-16 21:00N 19°08' W 120°10'1 0.2 21.9
2017-Feb-16 18:00N 19°08' W 120°11'0 0.0 21.8
2017-Feb-16 17:00N 19°08' W 120°11'1 0.6 21.8
2017-Feb-16 16:00N 19°09' W 120°11'1 0.8 21.8
2017-Feb-16 15:00N 19°10' W 120°11'0 0.0 21.8
2017-Feb-16 14:00N 19°10' W 120°11'1 0.7 21.8
2017-Feb-16 12:00N 19°11' W 120°12'1 1.3 21.8
2017-Feb-16 11:00N 19°11' W 120°13'0 0.0 21.8
2017-Feb-16 10:00N 19°11' W 120°13'0 0.0 21.8
2017-Feb-16 06:00N 19°11' W 120°13'0 0.0 21.8
2017-Feb-16 05:00N 19°11' W 120°13'0 0.0 21.8
2017-Feb-16 04:00N 19°11' W 120°13'1 0.8 21.9
2017-Feb-16 03:00N 19°12' W 120°13'1 0.6 21.9
2017-Feb-16 02:00N 19°13' W 120°13'1 1.2 21.9
2017-Feb-16 01:00N 19°14' W 120°13'1 0.6 21.9
2017-Feb-16 00:00N 19°14' W 120°12'0 0.0 21.9
2017-Feb-15 23:00N 19°14' W 120°12'1 0.4 21.9
2017-Feb-15 21:00N 19°14' W 120°11'1 0.3 21.9
2017-Feb-15 18:00N 19°15' W 120°11'1 0.8 21.8
2017-Feb-15 17:00N 19°16' W 120°10'0 0.0 21.8
2017-Feb-15 16:00N 19°16' W 120°10'1 0.8 21.8
2017-Feb-15 15:00N 19°16' W 120°10'1 0.8 21.8
2017-Feb-15 14:00N 19°17' W 120°09'1 1.1 21.8
2017-Feb-15 13:00N 19°17' W 120°08'1 1.3 21.8
2017-Feb-15 12:00N 19°18' W 120°07'1 0.6 21.8
2017-Feb-15 11:00N 19°19' W 120°07'2 1.8 21.8
2017-Feb-15 10:00N 19°19' W 120°05'2 2.1 21.8
2017-Feb-15 09:00N 19°18' W 120°07'3 0.9 21.8
2017-Feb-15 06:00N 19°19' W 120°05'1 0.8 21.9
2017-Feb-15 05:00N 19°20' W 120°04'1 0.6 21.9
2017-Feb-15 04:00N 19°20' W 120°04'2 1.7 21.9
2017-Feb-15 03:00N 19°20' W 120°02'0 0.0 21.9
2017-Feb-15 01:00N 19°20' W 120°02'1 1.3 21.9
2017-Feb-15 00:00N 19°20' W 120°01'0 0.0 21.9
2017-Feb-14 23:00N 19°20' W 120°01'1 0.3 21.9
2017-Feb-14 21:00N 19°20' W 120°00'3 1.0 21.9
2017-Feb-14 18:00N 19°19' W 119°57'1 1.3 21.9
2017-Feb-14 17:00N 19°19' W 119°56'0 0.0 21.9
2017-Feb-14 16:00N 19°19' W 119°56'1 0.6 21.9
2017-Feb-14 15:00N 19°18' W 119°56'1 1.1 21.9
2017-Feb-14 14:00N 19°18' W 119°55'0 0.0 21.9
2017-Feb-14 13:00N 19°18' W 119°55'2 1.8 21.9
2017-Feb-14 12:00N 19°17' W 119°53'0 0.0 21.9
2017-Feb-14 11:00N 19°17' W 119°53'3 3.1 21.9
2017-Feb-14 10:00N 19°16' W 119°50'3 3.1 22.0
2017-Feb-14 09:00N 19°17' W 119°53'4 0.9 22.0
2017-Feb-14 05:00N 19°16' W 119°49'1 0.6 22.1
2017-Feb-14 04:00N 19°16' W 119°49'1 0.6 22.1
2017-Feb-14 02:00N 19°16' W 119°47'0 0.0 22.1
2017-Feb-14 01:00N 19°16' W 119°47'0 0.0 22.2
2017-Feb-13 23:00N 19°16' W 119°47'1 0.6 22.2
2017-Feb-13 22:00N 19°16' W 119°47'0 0.0 22.2
2017-Feb-13 21:00N 19°16' W 119°47'1 0.4 22.2
2017-Feb-13 18:00N 19°15' W 119°46'1 1.3 22.1
2017-Feb-13 17:00N 19°14' W 119°45'0 0.0 22.1
2017-Feb-13 16:00N 19°14' W 119°45'1 0.3 22.1
2017-Feb-13 14:00N 19°14' W 119°44'0 0.0 22.1
2017-Feb-13 13:00N 19°14' W 119°44'2 0.6 22.1
2017-Feb-13 10:00N 19°13' W 119°44'0 0.0 22.2
2017-Feb-13 06:00N 19°13' W 119°44'1 0.8 22.3
2017-Feb-13 05:00N 19°12' W 119°43'0 0.0 22.3
2017-Feb-13 04:00N 19°12' W 119°43'0 0.0 22.3
2017-Feb-13 03:00N 19°12' W 119°43'1 0.6 22.4
2017-Feb-13 02:00N 19°11' W 119°43'1 0.8 22.4
2017-Feb-13 01:00N 19°11' W 119°43'0 0.0 22.4
2017-Feb-13 00:00N 19°11' W 119°43'1 0.6 22.4
2017-Feb-12 23:00N 19°11' W 119°42'0 0.0 22.4
2017-Feb-12 22:00N 19°11' W 119°42'0 0.0 22.4
2017-Feb-12 21:00N 19°11' W 119°42'1 0.4 22.4
2017-Feb-12 18:00N 19°11' W 119°41'0 0.0 22.3
2017-Feb-12 17:00N 19°11' W 119°41'0 0.0 22.2
2017-Feb-12 16:00N 19°11' W 119°41'0 0.0 22.3
2017-Feb-12 14:00N 19°11' W 119°41'1 1.3 22.2
2017-Feb-12 13:00N 19°12' W 119°40'0 0.0 22.2
2017-Feb-12 12:00N 19°12' W 119°40'1 0.8 22.2
2017-Feb-12 11:00N 19°11' W 119°41'1 0.6 22.1
2017-Feb-12 10:00N 19°11' W 119°41'0 0.0 22.1
2017-Feb-12 06:00N 19°11' W 119°41'0 0.0 22.2
2017-Feb-12 05:00N 19°11' W 119°41'1 0.8 22.3
2017-Feb-12 04:00N 19°11' W 119°42'1 0.6 22.4
2017-Feb-12 03:00N 19°11' W 119°42'1 0.6 22.4
2017-Feb-12 02:00N 19°11' W 119°42'1 0.8 22.5
2017-Feb-12 01:00N 19°10' W 119°41'0 0.0 22.6
2017-Feb-12 00:00N 19°10' W 119°41'1 0.6 22.7
2017-Feb-11 23:00N 19°10' W 119°42'0 0.0 22.9
2017-Feb-11 22:00N 19°10' W 119°42'1 0.1 22.9
2017-Feb-11 18:00N 19°10' W 119°41'0 0.0 22.5
2017-Feb-11 17:00N 19°10' W 119°41'1 0.6 22.4
2017-Feb-11 16:00N 19°11' W 119°41'0 0.0 22.4
2017-Feb-11 15:00N 19°11' W 119°41'1 0.6 22.4
2017-Feb-11 14:00N 19°10' W 119°41'1 0.6 22.5
2017-Feb-11 13:00N 19°11' W 119°41'1 0.6 22.5
2017-Feb-11 12:00N 19°11' W 119°42'1 0.8 22.6
2017-Feb-11 11:00N 19°10' W 119°43'0 0.0 22.6
2017-Feb-11 10:00N 19°10' W 119°43'0 0.0 22.4
2017-Feb-11 06:00N 19°10' W 119°43'1 0.6 22.5
2017-Feb-11 05:00N 19°10' W 119°43'1 0.6 22.6
2017-Feb-11 04:00N 19°10' W 119°43'0 0.0 22.6
2017-Feb-11 03:00N 19°10' W 119°43'1 0.6 22.8
2017-Feb-11 02:00N 19°10' W 119°44'1 0.6 23.0
2017-Feb-11 01:00N 19°10' W 119°43'0 0.0 23.4
2017-Feb-11 00:00N 19°10' W 119°43'0 0.0 23.6
2017-Feb-10 22:00N 19°10' W 119°43'0 0.0 23.8
2017-Feb-10 19:00N 19°10' W 119°43'0 0.0 22.6
2017-Feb-10 18:00N 19°10' W 119°43'0 0.0 22.4
2017-Feb-10 17:00N 19°10' W 119°43'0 0.0 22.3
2017-Feb-10 16:00N 19°10' W 119°43'1 0.6 22.2
2017-Feb-10 15:00N 19°10' W 119°44'0 0.0 22.2
2017-Feb-10 14:00N 19°10' W 119°44'0 0.0 22.1
2017-Feb-10 13:00N 19°10' W 119°44'1 0.6 22.2
2017-Feb-10 12:00N 19°10' W 119°44'2 1.7 22.2
2017-Feb-10 11:00N 19°08' W 119°46'2 1.7 22.2
2017-Feb-10 10:00N 19°10' W 119°44'2 0.4 22.1
2017-Feb-10 06:00N 19°08' W 119°46'1 0.6 22.3
2017-Feb-10 05:00N 19°08' W 119°46'0 0.0 22.4
2017-Feb-10 04:00N 19°08' W 119°46'1 0.3 22.4
2017-Feb-10 02:00N 19°08' W 119°46'0 0.0 22.6
2017-Feb-10 01:00N 19°08' W 119°46'0 0.0 22.7
2017-Feb-10 00:00N 19°08' W 119°46'0 0.0 22.6
2017-Feb-09 22:00N 19°08' W 119°46'1 0.3 22.4
2017-Feb-09 18:00N 19°08' W 119°47'   22.0

Dump ship's entire track history